Time;durP1;ratioP1;P1;durP2;ratioP2;P2;SDS_P1;SDS_P2;PMS_P1;PMS_P2;Temp;Humidity;BMP_temperature;BMP_pressure;BME280_temperature;BME280_humidity;BME280_pressure;Samples;Min_cycle;Max_cycle;Signal;HPM_P1;HPM_P2
2023/04/30 00:00:36;;;;;;;1.15;1.05;;;18.20;46.00;;;;;;6234016;23;20140;-83
2023/04/30 00:03:03;;;;;;;1.10;1.00;;;18.10;46.00;;;;;;6131396;23;20168;-82
2023/04/30 00:05:32;;;;;;;1.20;1.00;;;18.20;46.10;;;;;;6207892;23;20148;-83
2023/04/30 00:07:58;;;;;;;1.25;1.15;;;18.10;46.10;;;;;;6157749;23;20178;-83
2023/04/30 00:10:28;;;;;;;1.38;1.10;;;18.10;46.10;;;;;;6233937;23;20182;-83
2023/04/30 00:12:59;;;;;;;1.17;1.08;;;18.20;46.10;;;;;;6158305;23;20160;-82
2023/04/30 00:15:28;;;;;;;1.10;1.00;;;18.10;46.10;;;;;;6182989;23;20160;-82
2023/04/30 00:17:54;;;;;;;1.30;1.08;;;18.10;46.10;;;;;;6157141;23;20160;-83
2023/04/30 00:20:24;;;;;;;1.20;1.10;;;18.20;46.10;;;;;;6235693;23;20147;-83
2023/04/30 00:22:50;;;;;;;1.10;1.00;;;18.10;46.20;;;;;;6184266;23;20195;-83
2023/04/30 00:25:16;;;;;;;1.27;1.17;;;18.10;46.20;;;;;;6235807;23;20206;-83
2023/04/30 00:27:42;;;;;;;0.93;0.93;;;18.10;46.20;;;;;;6236000;23;20165;-82
2023/04/30 00:30:12;;;;;;;1.13;1.00;;;18.10;46.30;;;;;;6132579;23;20133;-83
2023/04/30 00:32:37;;;;;;;1.20;1.10;;;18.10;46.30;;;;;;6160528;23;20210;-83
2023/04/30 00:35:08;;;;;;;1.25;1.00;;;18.10;46.40;;;;;;6133259;23;20156;-83
2023/04/30 00:37:34;;;;;;;1.05;0.90;;;18.10;46.10;;;;;;6160191;23;20670;-83
2023/04/30 00:40:00;;;;;;;1.08;0.98;;;18.10;46.30;;;;;;6235167;23;20161;-83
2023/04/30 00:42:31;;;;;;;1.10;1.00;;;18.10;46.30;;;;;;6133373;23;20243;-83
2023/04/30 00:44:57;;;;;;;0.88;0.82;;;18.10;46.30;;;;;;6183925;23;20212;-82
2023/04/30 00:47:23;;;;;;;1.25;0.70;;;18.10;46.30;;;;;;6209578;23;20151;-85
2023/04/30 00:49:53;;;;;;;0.93;0.88;;;18.10;46.30;;;;;;6234825;23;20152;-83
2023/04/30 00:52:19;;;;;;;1.10;1.00;;;18.10;46.30;;;;;;6158818;23;20156;-83
2023/04/30 00:54:52;;;;;;;1.73;0.98;;;18.10;46.20;;;;;;6234061;23;20143;-82
2023/04/30 00:57:18;;;;;;;1.08;0.98;;;18.10;46.30;;;;;;6159327;23;20156;-82
2023/04/30 00:59:48;;;;;;;1.10;1.00;;;18.00;46.20;;;;;;6235651;23;20166;-83
2023/04/30 01:02:14;;;;;;;1.05;0.95;;;18.10;46.30;;;;;;6160365;23;20187;-83
2023/04/30 01:04:40;;;;;;;1.20;1.10;;;18.10;46.40;;;;;;6235200;23;20136;-83
2023/04/30 01:07:06;;;;;;;0.85;0.80;;;18.10;46.40;;;;;;6234543;23;20219;-83
2023/04/30 01:09:32;;;;;;;1.08;0.93;;;18.00;46.60;;;;;;6236016;23;20483;-83
2023/04/30 01:12:09;;;;;;;0.82;0.80;;;18.10;46.40;;;;;;6209458;23;20175;-83
2023/04/30 01:15:00;;;;;;;2.00;1.10;;;18.10;46.40;;;;;;6183370;23;20160;-83
2023/04/30 01:17:40;;;;;;;0.82;0.82;;;18.10;46.40;;;;;;6182028;23;20152;-83
2023/04/30 01:20:07;;;;;;;1.00;0.90;;;18.10;46.40;;;;;;6123220;23;20136;-83
2023/04/30 01:22:46;;;;;;;1.23;1.13;;;18.10;46.40;;;;;;6225237;23;20503;-84
2023/04/30 01:25:33;;;;;;;1.50;1.08;;;18.10;46.50;;;;;;6224370;23;20485;-84
2023/04/30 01:28:03;;;;;;;1.10;1.00;;;18.00;46.50;;;;;;6123184;23;20141;-84
2023/04/30 01:30:30;;;;;;;1.42;1.08;;;18.10;46.50;;;;;;6200446;23;20144;-83
2023/04/30 01:32:56;;;;;;;1.20;1.10;;;18.10;46.50;;;;;;6123043;22;20195;-83
2023/04/30 01:35:43;;;;;;;1.02;0.90;;;18.10;46.60;;;;;;6200642;23;20152;-83
2023/04/30 01:38:26;;;;;;;2.22;1.15;;;18.10;46.60;;;;;;6122744;23;20211;-84
2023/04/30 01:40:57;;;;;;;1.00;0.90;;;18.00;46.50;;;;;;6123178;23;20137;-84
2023/04/30 01:43:48;;;;;;;0.80;0.80;;;18.10;46.70;;;;;;6224976;23;20214;-83
2023/04/30 01:46:24;;;;;;;1.10;1.00;;;18.10;46.40;;;;;;6123118;23;20167;-83
2023/04/30 01:49:23;;;;;;;0.70;0.70;;;18.10;46.60;;;;;;6224499;23;20136;-83
2023/04/30 01:51:50;;;;;;;1.00;0.90;;;18.00;46.50;;;;;;6122500;23;20339;-83
2023/04/30 01:54:28;;;;;;;1.33;1.23;;;18.10;46.60;;;;;;6122730;23;20463;-83
2023/04/30 01:57:02;;;;;;;0.90;0.90;;;18.10;46.60;;;;;;6122747;23;20156;-83
2023/04/30 01:59:30;;;;;;;1.30;1.20;;;18.10;46.50;;;;;;6223090;23;20461;-83
2023/04/30 02:01:55;;;;;;;1.10;1.00;;;18.10;46.70;;;;;;6122635;23;20137;-84
2023/04/30 02:04:21;;;;;;;1.05;0.95;;;18.10;46.70;;;;;;6122928;23;20564;-83
2023/04/30 02:06:47;;;;;;;1.00;0.90;;;18.10;46.70;;;;;;6122692;23;20182;-83
2023/04/30 02:09:13;;;;;;;1.20;1.10;;;18.10;46.50;;;;;;6123152;23;20589;-84
2023/04/30 02:11:39;;;;;;;1.05;0.90;;;18.10;46.70;;;;;;6224637;23;20178;-84
2023/04/30 02:14:05;;;;;;;1.23;1.13;;;18.10;46.80;;;;;;6199391;23;20155;-84
2023/04/30 02:16:31;;;;;;;1.00;0.90;;;18.10;46.80;;;;;;6225110;23;20166;-83
2023/04/30 02:18:57;;;;;;;1.00;0.90;;;18.10;46.70;;;;;;6122660;23;20176;-84
2023/04/30 02:21:23;;;;;;;1.05;0.90;;;18.00;46.80;;;;;;6122793;23;20520;-84
2023/04/30 02:23:49;;;;;;;1.08;0.90;;;18.00;46.70;;;;;;6224597;23;20500;-83
2023/04/30 02:26:15;;;;;;;0.90;0.77;;;18.00;46.80;;;;;;6224693;23;20205;-84
2023/04/30 02:28:41;;;;;;;1.13;1.02;;;18.00;46.70;;;;;;6224626;23;20615;-83
2023/04/30 02:31:07;;;;;;;1.17;1.08;;;18.00;46.90;;;;;;6224378;23;20183;-84
2023/04/30 02:33:33;;;;;;;1.17;1.08;;;18.00;46.90;;;;;;6224901;23;20506;-84
2023/04/30 02:35:59;;;;;;;0.82;0.82;;;18.00;46.80;;;;;;6224505;23;20600;-83
2023/04/30 02:38:25;;;;;;;0.90;0.90;;;18.00;46.70;;;;;;6123123;23;20140;-83
2023/04/30 02:40:51;;;;;;;1.20;1.10;;;18.00;46.90;;;;;;6122009;23;20137;-84
2023/04/30 02:43:17;;;;;;;1.05;0.95;;;18.00;46.80;;;;;;6122914;23;20167;-84
2023/04/30 02:45:43;;;;;;;1.30;0.80;;;18.00;46.80;;;;;;6224565;23;20140;-83
2023/04/30 02:48:09;;;;;;;1.02;0.93;;;18.00;46.80;;;;;;6224854;23;20250;-83
2023/04/30 02:50:35;;;;;;;1.10;1.00;;;18.00;46.70;;;;;;6225113;23;20155;-83
2023/04/30 02:53:01;;;;;;;1.00;0.93;;;17.90;46.90;;;;;;6224367;23;20186;-83
2023/04/30 02:55:27;;;;;;;0.88;0.88;;;18.00;46.90;;;;;;6224304;23;20136;-83
2023/04/30 02:57:53;;;;;;;1.00;0.80;;;18.00;47.00;;;;;;6122531;23;20254;-83
2023/04/30 03:00:19;;;;;;;1.02;0.90;;;18.00;46.80;;;;;;6122472;23;20136;-83
2023/04/30 03:02:45;;;;;;;1.15;1.00;;;18.00;46.80;;;;;;6224310;23;20164;-83
2023/04/30 03:05:11;;;;;;;1.10;1.00;;;18.00;47.00;;;;;;6224047;23;20155;-84
2023/04/30 03:07:38;;;;;;;1.00;0.90;;;18.00;47.10;;;;;;6224354;23;20164;-83
2023/04/30 03:10:04;;;;;;;0.90;0.90;;;18.00;47.00;;;;;;6223797;23;20460;-84
2023/04/30 03:12:30;;;;;;;0.93;0.80;;;18.00;47.10;;;;;;6224169;23;20464;-83
2023/04/30 03:14:56;;;;;;;1.00;0.90;;;18.00;47.10;;;;;;6224189;23;20136;-83
2023/04/30 03:17:23;;;;;;;1.10;0.90;;;18.00;47.10;;;;;;6122904;23;20172;-83
2023/04/30 03:19:50;;;;;;;0.75;0.75;;;18.00;47.00;;;;;;6224896;23;20155;-84
2023/04/30 03:22:18;;;;;;;1.20;1.00;;;18.00;47.10;;;;;;6224686;23;20180;-84
2023/04/30 03:24:45;;;;;;;1.23;0.90;;;18.00;47.10;;;;;;6224122;23;20235;-83
2023/04/30 03:27:11;;;;;;;1.05;0.95;;;18.00;47.00;;;;;;6224031;23;20140;-84
2023/04/30 03:29:36;;;;;;;0.80;0.80;;;18.00;46.80;;;;;;6198814;23;20148;-84
2023/04/30 03:32:02;;;;;;;1.02;0.93;;;18.00;47.00;;;;;;6122047;22;20604;-84
2023/04/30 03:34:30;;;;;;;1.02;0.90;;;18.00;47.00;;;;;;6173887;23;20148;-83
2023/04/30 03:36:56;;;;;;;0.95;0.77;;;17.90;46.90;;;;;;6222539;23;20128;-83
2023/04/30 03:39:22;;;;;;;1.00;0.90;;;18.00;47.00;;;;;;6223958;23;20548;-84
2023/04/30 03:41:48;;;;;;;1.10;0.90;;;18.00;47.10;;;;;;6122069;23;20136;-83
2023/04/30 03:44:14;;;;;;;1.20;1.10;;;18.00;47.00;;;;;;6198610;23;20159;-83
2023/04/30 03:46:42;;;;;;;0.93;0.82;;;18.00;47.10;;;;;;6199938;23;20530;-83
2023/04/30 03:49:08;;;;;;;1.00;0.90;;;18.00;47.10;;;;;;6122779;23;20133;-83
2023/04/30 03:51:38;;;;;;;1.15;1.00;;;18.00;47.10;;;;;;6122510;23;20221;-83
2023/04/30 03:54:05;;;;;;;0.80;0.80;;;18.00;47.00;;;;;;6221347;23;20143;-83
2023/04/30 03:56:32;;;;;;;1.02;0.90;;;18.00;47.00;;;;;;6223927;23;20198;-84
2023/04/30 03:58:57;;;;;;;0.93;0.90;;;18.00;47.00;;;;;;6223330;23;20152;-84
2023/04/30 04:01:23;;;;;;;1.20;1.10;;;18.00;47.10;;;;;;6121713;23;20614;-84
2023/04/30 04:03:49;;;;;;;1.75;1.13;;;18.00;47.00;;;;;;6223278;23;20325;-84
2023/04/30 04:06:15;;;;;;;1.05;0.95;;;18.00;47.10;;;;;;6223537;23;20152;-83
2023/04/30 04:08:43;;;;;;;0.88;0.82;;;18.00;47.00;;;;;;6123615;23;20617;-84
2023/04/30 04:11:12;;;;;;;1.20;1.10;;;18.00;47.00;;;;;;6173711;23;20231;-83
2023/04/30 04:13:40;;;;;;;0.80;0.80;;;18.00;46.90;;;;;;6174009;23;20214;-83
2023/04/30 04:16:10;;;;;;;0.90;0.85;;;18.10;46.90;;;;;;6173301;23;20210;-82
2023/04/30 04:18:38;;;;;;;0.80;0.80;;;18.10;47.00;;;;;;6172761;23;20160;-82
2023/04/30 04:21:08;;;;;;;0.85;0.80;;;18.00;46.90;;;;;;6172726;23;20619;-84
2023/04/30 04:23:36;;;;;;;0.88;0.88;;;18.10;46.90;;;;;;6148343;23;20195;-82
2023/04/30 04:26:05;;;;;;;1.17;1.08;;;18.10;47.00;;;;;;6172783;23;20580;-83
2023/04/30 04:28:35;;;;;;;0.80;0.80;;;18.10;46.90;;;;;;6172578;23;20235;-83
2023/04/30 04:31:04;;;;;;;0.80;0.80;;;18.10;46.90;;;;;;6172123;23;20159;-83
2023/04/30 04:33:32;;;;;;;0.88;0.88;;;18.10;46.90;;;;;;6142277;23;20287;-83
2023/04/30 04:36:01;;;;;;;0.80;0.80;;;18.10;46.70;;;;;;6197364;23;20492;-83
2023/04/30 04:38:26;;;;;;;1.27;1.00;;;18.10;46.90;;;;;;6172324;23;20159;-83
2023/04/30 04:40:53;;;;;;;0.88;0.88;;;18.10;46.90;;;;;;6121849;23;20479;-82
2023/04/30 04:43:19;;;;;;;1.05;0.95;;;18.10;46.80;;;;;;6095835;23;20578;-84
2023/04/30 04:45:46;;;;;;;2.42;0.90;;;18.10;46.80;;;;;;6120530;23;20565;-84
2023/04/30 04:48:14;;;;;;;1.10;0.93;;;18.20;46.90;;;;;;6170239;23;20156;-82
2023/04/30 04:50:41;;;;;;;1.10;1.00;;;18.20;47.50;;;;;;6197189;23;20149;-84
2023/04/30 04:53:08;;;;;;;0.73;0.73;;;18.10;46.90;;;;;;6147283;23;20167;-84
2023/04/30 04:55:35;;;;;;;0.90;0.90;;;18.20;46.80;;;;;;6197097;23;20225;-83
2023/04/30 04:58:01;;;;;;;0.90;0.88;;;18.10;46.70;;;;;;6197109;23;20495;-83
2023/04/30 05:00:28;;;;;;;1.05;0.95;;;18.20;46.80;;;;;;6070933;23;20266;-83
2023/04/30 05:02:55;;;;;;;1.00;0.90;;;18.10;46.90;;;;;;6171710;23;20195;-84
2023/04/30 05:05:22;;;;;;;1.13;0.95;;;18.10;46.90;;;;;;6173586;23;20156;-83
2023/04/30 05:07:51;;;;;;;0.93;0.93;;;18.20;46.90;;;;;;6174090;23;20162;-83
2023/04/30 05:10:18;;;;;;;0.95;0.85;;;18.10;46.90;;;;;;6197353;23;20190;-83
2023/04/30 05:12:43;;;;;;;1.00;0.90;;;18.10;46.90;;;;;;6198729;23;20166;-83
2023/04/30 05:15:09;;;;;;;0.98;0.90;;;18.20;46.80;;;;;;6097265;23;20216;-83
2023/04/30 05:17:35;;;;;;;0.93;0.90;;;18.10;46.90;;;;;;6121518;23;20148;-83
2023/04/30 05:20:01;;;;;;;1.02;1.00;;;18.10;47.00;;;;;;6121602;23;20172;-83
2023/04/30 05:22:27;;;;;;;0.57;0.57;;;18.10;47.00;;;;;;6122844;23;20164;-83
2023/04/30 05:24:52;;;;;;;0.80;0.80;;;18.10;47.00;;;;;;6097208;23;20144;-84
2023/04/30 05:27:18;;;;;;;0.88;0.88;;;18.10;47.00;;;;;;6123051;23;20140;-83
2023/04/30 05:29:43;;;;;;;0.98;0.88;;;18.10;47.00;;;;;;6121866;23;20527;-84
2023/04/30 05:32:09;;;;;;;0.98;0.80;;;18.10;47.00;;;;;;6123010;22;20515;-83
2023/04/30 05:34:35;;;;;;;1.20;0.85;;;18.10;47.10;;;;;;6224911;23;20568;-83
2023/04/30 05:37:00;;;;;;;1.13;1.00;;;18.10;47.10;;;;;;6122900;23;20160;-84
2023/04/30 05:39:26;;;;;;;1.15;1.00;;;18.10;47.10;;;;;;6225054;23;20520;-83
2023/04/30 05:41:51;;;;;;;0.90;0.90;;;18.00;47.10;;;;;;6122712;23;20187;-83
2023/04/30 05:44:17;;;;;;;1.20;1.10;;;18.10;47.10;;;;;;6199851;23;20132;-83
2023/04/30 05:46:43;;;;;;;1.02;0.77;;;18.10;47.10;;;;;;6200145;23;20269;-83
2023/04/30 05:49:09;;;;;;;1.00;1.00;;;18.10;47.20;;;;;;6224840;23;20629;-83
2023/04/30 05:51:35;;;;;;;0.93;0.88;;;18.10;47.10;;;;;;6122932;23;20136;-82
2023/04/30 05:54:01;;;;;;;1.20;1.10;;;18.00;47.20;;;;;;6224770;23;20132;-83
2023/04/30 05:56:27;;;;;;;0.93;0.82;;;18.00;47.30;;;;;;6122750;23;20182;-83
2023/04/30 05:58:52;;;;;;;0.70;0.68;;;18.00;47.20;;;;;;6199470;23;20596;-83
2023/04/30 06:01:19;;;;;;;1.10;1.00;;;18.00;47.30;;;;;;6122718;23;20143;-83
2023/04/30 06:03:45;;;;;;;0.75;0.75;;;18.00;47.20;;;;;;6122654;23;20665;-83
2023/04/30 06:06:11;;;;;;;0.85;0.85;;;18.00;47.40;;;;;;6200723;23;20148;-84
2023/04/30 06:08:40;;;;;;;0.90;0.88;;;18.00;47.10;;;;;;6122780;23;20164;-83
2023/04/30 06:11:06;;;;;;;1.00;0.90;;;18.00;47.30;;;;;;6123002;23;20551;-83
2023/04/30 06:13:32;;;;;;;0.80;0.80;;;18.00;47.30;;;;;;6122683;23;20216;-82
2023/04/30 06:15:58;;;;;;;0.82;0.80;;;18.00;47.40;;;;;;6122661;23;20560;-82
2023/04/30 06:18:24;;;;;;;0.80;0.80;;;18.00;47.40;;;;;;6224875;23;20140;-82
2023/04/30 06:20:50;;;;;;;0.90;0.90;;;18.00;47.40;;;;;;6224817;23;20468;-84
2023/04/30 06:23:16;;;;;;;1.00;0.90;;;18.00;47.50;;;;;;6122511;23;20247;-82
2023/04/30 06:25:42;;;;;;;1.15;1.05;;;17.90;47.90;;;;;;6122864;23;20212;-82
2023/04/30 06:28:08;;;;;;;1.27;0.88;;;18.00;47.50;;;;;;6224370;23;20152;-82
2023/04/30 06:30:35;;;;;;;0.80;0.80;;;18.00;47.30;;;;;;6123055;23;20133;-82
2023/04/30 06:33:01;;;;;;;0.90;0.88;;;18.00;47.30;;;;;;6224200;23;20195;-82
2023/04/30 06:35:27;;;;;;;0.80;0.80;;;18.00;47.30;;;;;;6224036;23;20206;-83
2023/04/30 06:37:53;;;;;;;0.85;0.80;;;18.00;47.30;;;;;;6224651;23;20221;-83
2023/04/30 06:40:19;;;;;;;1.77;1.08;;;18.00;47.40;;;;;;6122900;23;20136;-83
2023/04/30 06:42:45;;;;;;;0.88;0.88;;;18.00;47.50;;;;;;6224087;23;20179;-83
2023/04/30 06:45:14;;;;;;;0.80;0.77;;;18.00;47.40;;;;;;6122939;23;20140;-82
2023/04/30 06:47:41;;;;;;;1.05;0.95;;;18.00;47.40;;;;;;6222425;23;20140;-83
2023/04/30 06:50:07;;;;;;;1.10;0.90;;;18.00;47.40;;;;;;6122827;23;20189;-82
2023/04/30 06:52:33;;;;;;;0.90;0.90;;;18.00;47.40;;;;;;6199155;23;20148;-83
2023/04/30 06:54:59;;;;;;;1.40;0.75;;;18.00;47.30;;;;;;6122480;23;20156;-83
2023/04/30 06:57:26;;;;;;;1.30;1.20;;;18.00;47.20;;;;;;6223915;23;20464;-83
2023/04/30 06:59:52;;;;;;;1.42;1.00;;;18.10;47.10;;;;;;6122461;23;20139;-83
2023/04/30 07:02:18;;;;;;;1.02;0.93;;;18.10;47.30;;;;;;6122342;23;20246;-84
2023/04/30 07:04:44;;;;;;;0.65;0.65;;;18.10;47.20;;;;;;6122792;23;20172;-84
2023/04/30 07:07:10;;;;;;;0.95;0.75;;;18.00;47.30;;;;;;6224840;23;20144;-84
2023/04/30 07:09:36;;;;;;;1.13;1.05;;;18.00;47.30;;;;;;6224514;23;20143;-85
2023/04/30 07:12:02;;;;;;;1.10;1.00;;;18.00;47.30;;;;;;6199302;23;20189;-83
2023/04/30 07:14:28;;;;;;;1.00;0.90;;;18.00;47.20;;;;;;6224148;23;20151;-83
2023/04/30 07:16:54;;;;;;;0.80;0.80;;;18.00;47.20;;;;;;6122400;23;20128;-83
2023/04/30 07:19:19;;;;;;;1.15;1.10;;;18.00;47.50;;;;;;6198560;23;20190;-84
2023/04/30 07:21:45;;;;;;;1.13;0.90;;;18.00;47.40;;;;;;6223827;23;20215;-84
2023/04/30 07:24:11;;;;;;;1.00;0.90;;;18.00;47.50;;;;;;6122400;23;20202;-83
2023/04/30 07:26:37;;;;;;;0.80;0.80;;;18.00;47.50;;;;;;6173985;23;20457;-83
2023/04/30 07:29:03;;;;;;;0.77;0.77;;;18.00;47.50;;;;;;6199097;23;20194;-83
2023/04/30 07:31:29;;;;;;;0.70;0.70;;;18.00;47.50;;;;;;6198747;23;20534;-83
2023/04/30 07:33:57;;;;;;;1.10;1.00;;;18.00;47.50;;;;;;6096811;23;20203;-84
2023/04/30 07:36:23;;;;;;;1.20;1.00;;;17.90;47.50;;;;;;6121159;23;20140;-83
2023/04/30 07:38:49;;;;;;;1.00;0.90;;;17.90;47.60;;;;;;6121314;23;20483;-82
2023/04/30 07:41:15;;;;;;;1.50;0.90;;;18.00;47.50;;;;;;6122483;23;20136;-83
2023/04/30 07:43:41;;;;;;;0.80;0.80;;;18.00;47.40;;;;;;6096543;23;20176;-82
2023/04/30 07:46:06;;;;;;;0.80;0.80;;;18.10;47.30;;;;;;6096570;23;20148;-82
2023/04/30 07:48:32;;;;;;;1.02;1.00;;;18.10;47.20;;;;;;6120405;23;20494;-82
2023/04/30 07:50:58;;;;;;;2.25;0.98;;;18.10;47.30;;;;;;6119836;23;20181;-83
2023/04/30 07:53:28;;;;;;;0.70;0.70;;;18.10;47.00;;;;;;6120193;23;20155;-85
2023/04/30 07:55:54;;;;;;;1.45;0.70;;;18.30;46.90;;;;;;6173052;23;20225;-82
2023/04/30 07:58:23;;;;;;;1.20;0.73;;;18.30;46.70;;;;;;6121253;23;20211;-81
2023/04/30 08:00:55;;;;;;;2.40;0.77;;;18.30;46.70;;;;;;6197863;23;20622;-84
2023/04/30 08:03:26;;;;;;;2.88;0.68;;;18.40;46.80;;;;;;6074211;23;20263;-85
2023/04/30 08:05:55;;;;;;;0.93;0.90;;;18.40;47.10;;;;;;6074479;23;20543;-85
2023/04/30 08:08:23;;;;;;;0.95;0.80;;;18.40;47.50;;;;;;6073103;23;20148;-84
2023/04/30 08:10:54;;;;;;;2.05;0.93;;;18.40;47.40;;;;;;6072881;23;20152;-85
2023/04/30 08:13:19;;;;;;;1.23;0.98;;;18.40;47.20;;;;;;6072533;23;20180;-84
2023/04/30 08:15:45;;;;;;;1.45;0.68;;;18.40;46.90;;;;;;6097132;23;20140;-82
2023/04/30 08:18:11;;;;;;;1.00;0.90;;;18.50;46.70;;;;;;6122727;23;20147;-83
2023/04/30 08:20:39;;;;;;;2.05;0.95;;;18.40;47.00;;;;;;6121264;23;20189;-82
2023/04/30 08:23:08;;;;;;;1.00;0.90;;;18.40;46.70;;;;;;6198422;23;20188;-82
2023/04/30 08:25:36;;;;;;;1.45;1.00;;;18.50;46.70;;;;;;6148347;23;20568;-82
2023/04/30 08:28:05;;;;;;;0.70;0.70;;;18.50;46.60;;;;;;6071886;23;20156;-82
2023/04/30 08:30:33;;;;;;;1.45;0.80;;;18.50;46.80;;;;;;6173284;23;20536;-83
2023/04/30 08:32:59;;;;;;;0.93;0.80;;;18.50;46.90;;;;;;6172618;23;20199;-82
2023/04/30 08:35:28;;;;;;;1.80;0.73;;;18.50;46.90;;;;;;6096293;23;20171;-82
2023/04/30 08:37:57;;;;;;;2.28;0.90;;;18.50;46.80;;;;;;6171882;23;20475;-83
2023/04/30 08:40:22;;;;;;;3.60;0.70;;;18.50;46.40;;;;;;6072236;23;20160;-82
2023/04/30 08:42:52;;;;;;;0.70;0.70;;;18.50;46.40;;;;;;6121539;23;20156;-82
2023/04/30 08:45:18;;;;;;;0.60;0.60;;;18.50;46.70;;;;;;6100897;23;20441;-82
2023/04/30 08:47:44;;;;;;;0.68;0.68;;;18.60;46.40;;;;;;6121487;23;20189;-83
2023/04/30 08:50:12;;;;;;;0.88;0.80;;;18.60;46.30;;;;;;6097501;23;20136;-83
2023/04/30 08:52:39;;;;;;;0.60;0.60;;;18.60;46.90;;;;;;6199153;23;20689;-82
2023/04/30 08:55:09;;;;;;;0.80;0.80;;;18.60;46.80;;;;;;6199330;23;20595;-81
2023/04/30 08:57:37;;;;;;;2.60;0.73;;;18.60;46.60;;;;;;6148985;23;20251;-82
2023/04/30 09:00:06;;;;;;;0.80;0.70;;;18.50;46.90;;;;;;6074247;23;20587;-83
2023/04/30 09:02:34;;;;;;;2.58;0.60;;;18.50;46.70;;;;;;6149432;23;20187;-82
2023/04/30 09:05:01;;;;;;;0.95;0.70;;;18.50;46.80;;;;;;6199017;23;20223;-82
2023/04/30 09:07:27;;;;;;;0.82;0.60;;;18.50;46.90;;;;;;6173747;23;20164;-83
2023/04/30 09:09:53;;;;;;;2.30;0.98;;;18.50;46.90;;;;;;6121213;23;20595;-84
2023/04/30 09:12:19;;;;;;;1.67;0.68;;;18.50;46.70;;;;;;6123923;23;20140;-84
2023/04/30 09:15:02;;;;;;;1.80;0.80;;;18.50;46.80;;;;;;6097681;23;20595;-84
2023/04/30 09:17:29;;;;;;;2.97;0.90;;;18.60;46.80;;;;;;6124224;23;20136;-84
2023/04/30 09:20:11;;;;;;;1.23;0.65;;;18.60;46.40;;;;;;6152735;23;20163;-85
2023/04/30 09:22:40;;;;;;;0.73;0.70;;;18.60;46.80;;;;;;6057887;23;20179;-85
2023/04/30 09:25:07;;;;;;;0.80;0.68;;;18.60;46.60;;;;;;6052314;23;20166;-84
2023/04/30 09:27:34;;;;;;;1.25;0.60;;;18.60;46.50;;;;;;6125019;23;20137;-84
2023/04/30 09:30:00;;;;;;;1.33;0.80;;;18.70;46.20;;;;;;6125264;23;20144;-83
2023/04/30 09:32:26;;;;;;;1.95;0.70;;;18.70;46.50;;;;;;6100390;23;20210;-84
2023/04/30 09:34:52;;;;;;;1.98;0.77;;;18.70;46.70;;;;;;6124918;23;20179;-83
2023/04/30 09:37:18;;;;;;;0.60;0.60;;;18.70;46.70;;;;;;6102254;23;20148;-84
2023/04/30 09:39:50;;;;;;;1.85;0.75;;;18.60;46.90;;;;;;6127298;23;20133;-83
2023/04/30 09:42:15;;;;;;;0.50;0.50;;;18.60;46.90;;;;;;6103472;23;20136;-84
2023/04/30 09:44:42;;;;;;;0.70;0.60;;;18.60;47.00;;;;;;6125749;23;20460;-84
2023/04/30 09:47:12;;;;;;;0.93;0.65;;;18.60;46.90;;;;;;6126972;23;20199;-83
2023/04/30 09:49:42;;;;;;;1.27;0.70;;;18.60;46.60;;;;;;6101867;23;20239;-84
2023/04/30 09:52:13;;;;;;;0.82;0.70;;;18.60;46.60;;;;;;6127456;23;20159;-83
2023/04/30 09:54:39;;;;;;;2.30;0.52;;;18.60;46.20;;;;;;6080027;23;20155;-83
2023/04/30 09:57:08;;;;;;;1.02;0.65;;;18.60;46.20;;;;;;6126711;23;20132;-83
2023/04/30 09:59:36;;;;;;;1.65;0.60;;;18.60;45.90;;;;;;6103888;23;20182;-84
2023/04/30 10:02:03;;;;;;;2.40;0.75;;;18.60;46.20;;;;;;6126780;23;20132;-84
2023/04/30 10:04:33;;;;;;;0.50;0.50;;;18.60;46.00;;;;;;6102534;23;20129;-82
2023/04/30 10:07:00;;;;;;;1.65;0.70;;;18.60;46.50;;;;;;6127379;23;20226;-83
2023/04/30 10:09:29;;;;;;;3.33;0.73;;;18.60;46.40;;;;;;6127176;23;20183;-84
2023/04/30 10:12:03;;;;;;;1.75;0.60;;;18.50;46.00;;;;;;6105986;23;20682;-82
2023/04/30 10:14:46;;;;;;;2.80;0.80;;;18.60;45.80;;;;;;6078490;23;20598;-84
2023/04/30 10:17:13;;;;;;;2.25;0.80;;;18.60;46.00;;;;;;6080893;23;20156;-83
2023/04/30 10:19:40;;;;;;;2.30;0.65;;;18.60;46.40;;;;;;6128292;23;20208;-83
2023/04/30 10:22:07;;;;;;;3.30;0.88;;;18.60;46.40;;;;;;6104301;23;20159;-83
2023/04/30 10:24:33;;;;;;;1.83;0.80;;;18.60;46.30;;;;;;6128326;23;20137;-83
2023/04/30 10:27:02;;;;;;;3.05;0.80;;;18.70;45.80;;;;;;6129466;23;20140;-84
2023/04/30 10:29:28;;;;;;;1.38;0.60;;;18.70;45.80;;;;;;6079603;23;20164;-83
2023/04/30 10:31:53;;;;;;;4.53;1.10;;;18.70;46.00;;;;;;6104729;22;20184;-85
2023/04/30 10:34:35;;;;;;;3.60;0.85;;;18.60;46.00;;;;;;6179278;23;20152;-84
2023/04/30 10:37:06;;;;;;;2.55;1.00;;;18.70;46.10;;;;;;6125817;23;20163;-83
2023/04/30 10:39:33;;;;;;;3.78;0.95;;;18.60;45.50;;;;;;6203303;23;20144;-84
2023/04/30 10:42:02;;;;;;;6.28;0.95;;;18.70;45.50;;;;;;6229493;23;20140;-84
2023/04/30 10:44:30;;;;;;;1.88;1.05;;;18.70;46.60;;;;;;6229743;23;20149;-83
2023/04/30 10:46:59;;;;;;;2.63;0.88;;;18.70;45.70;;;;;;6205156;23;20155;-83
2023/04/30 10:49:55;;;;;;;3.00;1.00;;;18.70;45.80;;;;;;6204371;23;20599;-85
2023/04/30 10:52:29;;;;;;;3.28;0.80;;;18.70;45.70;;;;;;6194321;23;20167;-85
2023/04/30 10:55:03;;;;;;;5.25;0.80;;;18.70;45.50;;;;;;6176327;23;20167;-85
2023/04/30 10:57:29;;;;;;;2.55;0.73;;;18.70;45.40;;;;;;6153518;23;20282;-83
2023/04/30 11:00:18;;;;;;;2.15;0.80;;;18.70;45.50;;;;;;6199573;23;20175;-83
2023/04/30 11:02:47;;;;;;;2.83;0.82;;;18.70;45.20;;;;;;6204727;23;20175;-84
2023/04/30 11:05:15;;;;;;;3.20;0.70;;;18.70;44.70;;;;;;6224766;23;20207;-83
2023/04/30 11:08:01;;;;;;;1.70;0.70;;;18.60;44.50;;;;;;6199673;23;20180;-83
2023/04/30 11:10:27;;;;;;;6.05;0.80;;;18.70;45.00;;;;;;6123790;22;20175;-84
2023/04/30 11:12:54;;;;;;;3.78;0.80;;;18.70;44.40;;;;;;6199804;23;20148;-83
2023/04/30 11:15:21;;;;;;;1.90;0.80;;;18.70;44.40;;;;;;6225169;23;20223;-81
2023/04/30 11:17:48;;;;;;;1.98;0.70;;;18.70;45.10;;;;;;6200952;23;20189;-83
2023/04/30 11:20:29;;;;;;;0.95;0.70;;;18.70;44.90;;;;;;6175857;23;20229;-83
2023/04/30 11:23:12;;;;;;;2.97;0.88;;;18.70;44.40;;;;;;6204016;23;20167;-84
2023/04/30 11:25:41;;;;;;;2.30;0.70;;;18.70;44.00;;;;;;6226222;23;20143;-84
2023/04/30 11:28:16;;;;;;;2.45;0.68;;;18.70;43.90;;;;;;6224630;23;20140;-85
2023/04/30 11:34:24;;;;;;;1.60;0.80;;;18.60;44.20;;;;;;6208474;23;20198;-83
2023/04/30 11:36:50;;;;;;;4.88;1.00;;;18.70;44.10;;;;;;6189417;23;20219;-84
2023/04/30 11:39:16;;;;;;;2.20;0.80;;;18.70;44.10;;;;;;6214076;23;20198;-84
2023/04/30 11:41:42;;;;;;;3.10;0.75;;;18.70;44.40;;;;;;6188509;23;20146;-83
2023/04/30 11:44:22;;;;;;;2.28;0.60;;;18.80;44.00;;;;;;6163576;23;20282;-83
2023/04/30 11:46:48;;;;;;;1.23;0.70;;;18.70;43.80;;;;;;6188666;23;20215;-84
2023/04/30 11:49:14;;;;;;;1.23;0.90;;;18.80;43.40;;;;;;6163639;23;20150;-83
2023/04/30 11:51:40;;;;;;;1.50;0.73;;;18.80;43.30;;;;;;6188528;23;20531;-84
2023/04/30 11:54:07;;;;;;;1.38;0.60;;;18.80;43.90;;;;;;6188515;23;20138;-83
2023/04/30 11:56:34;;;;;;;0.75;0.75;;;18.70;44.20;;;;;;6188349;23;20150;-83
2023/04/30 11:59:00;;;;;;;0.85;0.77;;;18.80;43.30;;;;;;6188431;23;20161;-83
2023/04/30 12:01:27;;;;;;;1.75;0.68;;;18.70;43.60;;;;;;6213731;23;20142;-83
2023/04/30 12:03:56;;;;;;;1.10;0.70;;;18.80;43.70;;;;;;6188734;23;20260;-82
2023/04/30 12:06:24;;;;;;;0.60;0.57;;;18.80;44.10;;;;;;6250315;22;20125;-83
2023/04/30 12:08:53;;;;;;;1.20;0.68;;;18.70;43.20;;;;;;6249923;22;20133;-83
2023/04/30 12:11:25;;;;;;;1.20;0.90;;;18.70;43.20;;;;;;6225355;22;20125;-84
2023/04/30 12:13:57;;;;;;;1.05;0.80;;;18.70;42.80;;;;;;6151419;22;20160;-84
2023/04/30 12:16:27;;;;;;;1.95;0.80;;;18.80;42.80;;;;;;6152037;22;20546;-83
2023/04/30 12:18:57;;;;;;;1.55;0.60;;;18.70;42.70;;;;;;6176337;22;20185;-83
2023/04/30 12:21:27;;;;;;;1.02;0.85;;;18.80;42.50;;;;;;6176332;22;20480;-83
2023/04/30 12:23:57;;;;;;;1.40;0.88;;;18.80;42.30;;;;;;6152393;22;20180;-84
2023/04/30 12:26:34;;;;;;;2.35;0.60;;;18.80;42.00;;;;;;6177004;22;20155;-83
2023/04/30 12:29:03;;;;;;;0.47;0.47;;;18.70;42.30;;;;;;6180344;22;20155;-84
2023/04/30 12:31:35;;;;;;;0.68;0.68;;;18.80;42.00;;;;;;6176733;22;20153;-84
2023/04/30 12:34:04;;;;;;;1.60;0.82;;;18.80;42.90;;;;;;6183971;23;20200;-83
2023/04/30 12:36:35;;;;;;;2.60;0.52;;;18.80;42.40;;;;;;6097698;23;20206;-83
2023/04/30 12:39:09;;;;;;;0.75;0.60;;;18.80;42.10;;;;;;6073416;23;20219;-84
2023/04/30 12:41:46;;;;;;;0.80;0.65;;;18.80;41.40;;;;;;6149143;23;20164;-83
2023/04/30 12:44:23;;;;;;;0.80;0.70;;;18.80;41.60;;;;;;6098243;23;20203;-83
2023/04/30 12:46:54;;;;;;;0.93;0.70;;;18.80;41.20;;;;;;6199263;23;20155;-84
2023/04/30 12:49:24;;;;;;;0.60;0.50;;;18.80;41.20;;;;;;6172776;23;20148;-83
2023/04/30 12:51:56;;;;;;;1.17;0.65;;;18.80;41.50;;;;;;6149039;23;20465;-84
2023/04/30 12:54:26;;;;;;;3.58;0.57;;;18.80;41.10;;;;;;6147197;23;20148;-83
2023/04/30 12:57:10;;;;;;;1.13;0.63;;;18.90;41.50;;;;;;6174627;23;20166;-83